Time;durP1;ratioP1;P1;durP2;ratioP2;P2;SDS_P1;SDS_P2;PMS_P1;PMS_P2;Temp;Humidity;BMP_temperature;BMP_pressure;BME280_temperature;BME280_humidity;BME280_pressure;Samples;Min_cycle;Max_cycle;Signal;HPM_P1;HPM_P2
2021/05/19 00:02:07;;;;;;;32.23;19.00;;;7.30;99.90;;;;;;5110003;28;20477;-57
2021/05/19 00:04:32;;;;;;;32.53;18.23;;;7.30;99.90;;;;;;5110267;28;20047;-57
2021/05/19 00:06:58;;;;;;;31.53;18.43;;;7.20;99.90;;;;;;5110335;28;20395;-57
2021/05/19 00:09:24;;;;;;;24.17;16.83;;;7.20;99.90;;;;;;5110327;28;20055;-57
2021/05/19 00:11:50;;;;;;;24.07;16.87;;;7.20;99.90;;;;;;5110477;28;20035;-57
2021/05/19 00:14:17;;;;;;;27.43;18.57;;;7.20;99.90;;;;;;5110369;28;20295;-57
2021/05/19 00:16:45;;;;;;;31.93;18.23;;;7.30;99.90;;;;;;5109990;28;20051;-58
2021/05/19 00:19:11;;;;;;;32.90;20.17;;;7.30;99.90;;;;;;5110199;28;20298;-57
2021/05/19 00:21:37;;;;;;;29.10;18.13;;;7.30;99.90;;;;;;5110197;28;20301;-57
2021/05/19 00:24:05;;;;;;;29.77;19.13;;;7.40;99.90;;;;;;5110110;28;20048;-57
2021/05/19 00:26:31;;;;;;;28.10;18.40;;;7.40;99.90;;;;;;5110060;28;20044;-57
2021/05/19 00:28:58;;;;;;;30.43;18.37;;;7.50;99.90;;;;;;5109789;28;20332;-57
2021/05/19 00:31:26;;;;;;;27.67;18.33;;;7.60;99.90;;;;;;5110300;28;20052;-58
2021/05/19 00:33:51;;;;;;;27.27;18.27;;;7.60;99.90;;;;;;5110284;28;20329;-58
2021/05/19 00:36:18;;;;;;;30.97;18.67;;;7.70;99.90;;;;;;5109569;28;20043;-58
2021/05/19 00:38:44;;;;;;;29.97;19.93;;;7.60;99.90;;;;;;5110348;28;20320;-58
2021/05/19 00:41:12;;;;;;;23.17;17.23;;;7.70;99.90;;;;;;5110063;28;20774;-58
2021/05/19 00:43:39;;;;;;;29.20;17.70;;;7.80;99.90;;;;;;5110173;28;20320;-58
2021/05/19 00:46:06;;;;;;;34.43;20.60;;;7.80;99.90;;;;;;5109969;28;20293;-57
2021/05/19 00:48:34;;;;;;;29.57;18.83;;;7.80;99.90;;;;;;5110080;28;20298;-57
2021/05/19 00:50:59;;;;;;;35.10;19.83;;;7.80;99.90;;;;;;5109915;28;20312;-58
2021/05/19 00:53:25;;;;;;;34.13;20.20;;;7.90;99.90;;;;;;5110155;28;20405;-57
2021/05/19 00:55:51;;;;;;;33.87;21.50;;;7.90;99.90;;;;;;5109977;28;20541;-58
2021/05/19 00:58:17;;;;;;;34.83;21.93;;;8.00;99.90;;;;;;5109959;28;20048;-58
2021/05/19 01:00:42;;;;;;;33.10;21.00;;;8.00;99.90;;;;;;5110131;28;20039;-58
2021/05/19 01:03:08;;;;;;;35.00;22.53;;;8.00;99.90;;;;;;5109745;28;20039;-58
2021/05/19 01:05:48;;;;;;;43.33;24.97;;;8.00;99.90;;;;;;5109926;28;20047;-58
2021/05/19 01:11:08;;;;;;;35.03;21.92;;;8.10;99.90;;;;;;5113801;28;20803;-55
2021/05/19 01:13:36;;;;;;;38.00;22.00;;;8.10;99.90;;;;;;5114057;28;20113;-57
2021/05/19 01:16:02;;;;;;;30.37;20.37;;;8.10;99.90;;;;;;5113498;28;20297;-57
2021/05/19 01:18:28;;;;;;;29.77;19.87;;;8.20;99.90;;;;;;5114275;28;20293;-57
2021/05/19 01:20:57;;;;;;;30.77;19.57;;;8.10;99.90;;;;;;5114003;28;20304;-57
2021/05/19 01:23:27;;;;;;;32.97;20.77;;;8.10;99.90;;;;;;5113728;28;20393;-58
2021/05/19 01:25:54;;;;;;;26.77;17.73;;;8.20;99.90;;;;;;5113747;28;20301;-58
2021/05/19 01:28:20;;;;;;;28.97;19.43;;;8.20;99.90;;;;;;5113519;28;20300;-58
2021/05/19 01:30:46;;;;;;;27.93;18.23;;;8.10;99.90;;;;;;5113444;28;20297;-58
2021/05/19 01:33:11;;;;;;;23.77;17.40;;;8.10;99.90;;;;;;5113281;28;20396;-59
2021/05/19 01:35:37;;;;;;;26.53;17.70;;;8.10;99.90;;;;;;5113766;28;20465;-58
2021/05/19 01:38:06;;;;;;;35.70;21.53;;;8.00;99.90;;;;;;5113649;28;20433;-58
2021/05/19 01:40:33;;;;;;;26.67;19.90;;;8.10;99.90;;;;;;5113534;28;20619;-58
2021/05/19 01:42:59;;;;;;;30.20;18.50;;;8.10;99.90;;;;;;5113047;28;20313;-58
2021/05/19 01:45:26;;;;;;;28.23;18.90;;;8.10;99.90;;;;;;5113499;28;20324;-58
2021/05/19 01:47:53;;;;;;;33.80;20.77;;;8.10;99.90;;;;;;5113312;28;20317;-58
2021/05/19 01:50:26;;;;;;;29.83;19.90;;;8.10;99.90;;;;;;5113050;28;20130;-58
2021/05/19 01:52:54;;;;;;;36.40;20.57;;;8.10;99.90;;;;;;5112913;28;20304;-59
2021/05/19 01:55:22;;;;;;;31.70;18.73;;;8.00;99.90;;;;;;5113184;28;20316;-59
2021/05/19 01:57:49;;;;;;;30.50;19.27;;;8.00;99.90;;;;;;5112980;28;20317;-58
2021/05/19 02:00:17;;;;;;;29.70;19.83;;;7.90;99.90;;;;;;5112993;28;20483;-57
2021/05/19 02:02:43;;;;;;;37.40;21.83;;;7.90;99.90;;;;;;5112780;28;20309;-58
2021/05/19 02:05:13;;;;;;;32.47;21.60;;;7.80;99.90;;;;;;5112658;28;20301;-58
2021/05/19 02:07:39;;;;;;;39.60;22.77;;;7.80;99.90;;;;;;5112449;28;20051;-57
2021/05/19 02:10:07;;;;;;;40.13;25.27;;;7.80;99.90;;;;;;5113158;28;20389;-57
2021/05/19 02:12:33;;;;;;;36.10;21.90;;;7.80;99.90;;;;;;5112923;28;20304;-57
2021/05/19 02:14:58;;;;;;;34.97;22.30;;;7.90;99.90;;;;;;5112683;28;20293;-58
2021/05/19 02:17:28;;;;;;;36.33;22.77;;;7.90;99.90;;;;;;5112713;28;20043;-58
2021/05/19 02:20:06;;;;;;;39.23;23.13;;;8.00;99.90;;;;;;5111676;28;20116;-58
2021/05/19 02:22:32;;;;;;;35.27;21.93;;;8.00;99.90;;;;;;5112413;28;20317;-57
2021/05/19 02:24:58;;;;;;;42.90;24.27;;;8.00;99.90;;;;;;5112677;28;20308;-58
2021/05/19 02:27:24;;;;;;;40.77;24.77;;;8.10;99.90;;;;;;5112611;28;20293;-58
2021/05/19 02:29:54;;;;;;;37.23;22.93;;;8.10;99.90;;;;;;5112819;28;20298;-57
2021/05/19 02:32:21;;;;;;;39.57;22.87;;;8.10;99.90;;;;;;5112090;28;20489;-58
2021/05/19 02:34:46;;;;;;;33.13;22.17;;;8.10;99.90;;;;;;5112403;28;20828;-58
2021/05/19 02:37:12;;;;;;;39.60;22.53;;;8.10;99.90;;;;;;5112587;28;20388;-59
2021/05/19 02:39:38;;;;;;;35.63;23.23;;;8.20;99.90;;;;;;5112233;28;20043;-58
2021/05/19 02:42:04;;;;;;;41.53;24.20;;;8.20;99.90;;;;;;5112287;28;20394;-58
2021/05/19 02:44:34;;;;;;;44.80;24.17;;;8.20;99.90;;;;;;5112454;28;20304;-58
2021/05/19 02:46:59;;;;;;;39.13;23.23;;;8.20;99.90;;;;;;5112294;28;20640;-58
2021/05/19 02:49:25;;;;;;;46.43;25.13;;;8.20;99.90;;;;;;5111885;28;20066;-57
2021/05/19 02:51:51;;;;;;;35.63;21.83;;;8.10;99.90;;;;;;5112125;28;20130;-58
2021/05/19 02:54:17;;;;;;;41.40;22.50;;;8.10;99.90;;;;;;5112138;28;20039;-58
2021/05/19 02:56:43;;;;;;;32.17;21.77;;;8.10;99.90;;;;;;5111883;28;20501;-58
2021/05/19 02:59:08;;;;;;;38.87;22.67;;;8.10;99.90;;;;;;5111859;28;20495;-58
2021/05/19 03:01:34;;;;;;;35.00;22.13;;;8.10;99.90;;;;;;5112009;28;20100;-58
2021/05/19 03:04:01;;;;;;;32.30;22.07;;;8.10;99.90;;;;;;5112127;28;20044;-59
2021/05/19 03:06:26;;;;;;;34.67;21.63;;;8.10;99.90;;;;;;5111810;28;20647;-57
2021/05/19 03:08:52;;;;;;;36.67;21.70;;;8.10;99.90;;;;;;5111447;28;20048;-56
2021/05/19 03:11:18;;;;;;;38.03;22.63;;;8.10;99.90;;;;;;5112197;28;20325;-58
2021/05/19 03:13:44;;;;;;;36.10;22.70;;;8.10;99.90;;;;;;5112197;28;20051;-57
2021/05/19 03:16:10;;;;;;;36.40;21.70;;;8.10;99.90;;;;;;5111976;28;20294;-59
2021/05/19 03:18:36;;;;;;;39.90;24.13;;;8.10;99.90;;;;;;5112181;28;20066;-59
2021/05/19 03:21:03;;;;;;;40.13;24.30;;;8.10;99.90;;;;;;5111435;28;20051;-58
2021/05/19 03:23:29;;;;;;;41.37;21.90;;;8.10;99.90;;;;;;5111071;28;20085;-58
2021/05/19 03:25:57;;;;;;;36.27;21.83;;;8.20;99.90;;;;;;5110813;28;20308;-57
2021/05/19 03:28:23;;;;;;;35.60;21.53;;;8.10;99.90;;;;;;5114056;28;20306;-59
2021/05/19 03:30:49;;;;;;;34.00;21.67;;;8.20;99.90;;;;;;5112879;28;20349;-61
2021/05/19 03:33:16;;;;;;;37.77;21.43;;;8.20;99.90;;;;;;5114026;28;20047;-58
2021/05/19 03:35:41;;;;;;;30.40;18.60;;;8.20;99.90;;;;;;5096023;28;20364;-58
2021/05/19 03:38:07;;;;;;;31.40;20.27;;;8.20;99.90;;;;;;5114248;28;20336;-58
2021/05/19 03:40:34;;;;;;;30.67;18.47;;;8.20;99.90;;;;;;5114396;28;20479;-58
2021/05/19 03:42:59;;;;;;;31.63;19.77;;;8.20;99.90;;;;;;5113788;28;20737;-56
2021/05/19 03:45:26;;;;;;;31.07;17.97;;;8.20;99.90;;;;;;5110850;28;20305;-58
2021/05/19 03:47:53;;;;;;;34.00;19.33;;;8.20;99.90;;;;;;5110833;28;20054;-57
2021/05/19 03:50:29;;;;;;;29.10;18.67;;;8.10;99.90;;;;;;5110978;28;20301;-58
2021/05/19 03:52:55;;;;;;;29.97;18.57;;;8.20;99.90;;;;;;5110744;28;21054;-58
2021/05/19 03:55:21;;;;;;;32.43;19.50;;;8.20;99.90;;;;;;5110957;28;20293;-57
2021/05/19 03:57:47;;;;;;;32.30;19.20;;;8.20;99.90;;;;;;5110765;28;20302;-58
2021/05/19 04:00:19;;;;;;;27.47;17.47;;;8.10;99.90;;;;;;5110335;28;20055;-58
2021/05/19 04:02:49;;;;;;;31.60;19.60;;;8.20;99.90;;;;;;5110902;28;20047;-58
2021/05/19 04:05:20;;;;;;;33.73;20.33;;;8.20;99.90;;;;;;5111030;28;20656;-58
2021/05/19 04:07:50;;;;;;;30.93;19.13;;;8.20;99.90;;;;;;5110303;28;20370;-59
2021/05/19 04:10:16;;;;;;;32.00;18.70;;;8.20;99.90;;;;;;5110189;28;20304;-57
2021/05/19 04:12:42;;;;;;;35.50;20.97;;;8.20;99.90;;;;;;5109954;28;20376;-58
2021/05/19 04:15:09;;;;;;;32.97;19.40;;;8.20;99.90;;;;;;5110361;28;20894;-59
2021/05/19 04:17:34;;;;;;;31.37;18.73;;;8.30;99.90;;;;;;5110451;28;20112;-58
2021/05/19 04:20:01;;;;;;;32.20;19.83;;;8.30;99.90;;;;;;5110527;28;20683;-59
2021/05/19 04:22:26;;;;;;;29.80;19.43;;;8.30;99.90;;;;;;5110397;28;20043;-58
2021/05/19 04:24:52;;;;;;;34.40;21.40;;;8.30;99.90;;;;;;5110109;28;20301;-59
2021/05/19 04:27:18;;;;;;;31.67;18.23;;;8.30;99.90;;;;;;5092529;28;20391;-59
2021/05/19 04:29:44;;;;;;;30.13;17.77;;;8.30;99.90;;;;;;5110408;28;20580;-59
2021/05/19 04:32:10;;;;;;;27.00;18.00;;;8.40;99.90;;;;;;5110390;28;20381;-56
2021/05/19 04:34:38;;;;;;;29.37;18.67;;;8.40;99.90;;;;;;5110371;28;20046;-59
2021/05/19 04:37:05;;;;;;;23.97;17.30;;;8.40;99.90;;;;;;5110342;28;20312;-59
2021/05/19 04:39:31;;;;;;;28.93;17.27;;;8.40;99.90;;;;;;5110428;28;20347;-59
2021/05/19 04:41:58;;;;;;;30.97;19.67;;;8.40;99.90;;;;;;5109139;28;20299;-59
2021/05/19 04:44:23;;;;;;;29.73;18.83;;;8.40;99.90;;;;;;5109926;28;20293;-59
2021/05/19 04:46:49;;;;;;;30.83;19.30;;;8.50;99.90;;;;;;5110285;28;20059;-57
2021/05/19 04:49:15;;;;;;;30.70;18.97;;;8.40;99.90;;;;;;5109984;28;20059;-57
2021/05/19 04:51:41;;;;;;;28.33;17.67;;;8.50;99.90;;;;;;5109410;28;20055;-57
2021/05/19 04:54:07;;;;;;;35.50;20.27;;;8.50;99.90;;;;;;5109391;28;20290;-56
2021/05/19 04:56:34;;;;;;;32.00;20.57;;;8.50;99.90;;;;;;5108590;28;20068;-57
2021/05/19 04:58:59;;;;;;;31.97;21.00;;;8.50;99.90;;;;;;5109297;28;20366;-57
2021/05/19 05:01:25;;;;;;;30.60;19.40;;;8.50;99.90;;;;;;5109653;28;20302;-58
2021/05/19 05:03:51;;;;;;;33.17;19.20;;;8.50;99.90;;;;;;5109525;28;20040;-58
2021/05/19 05:06:16;;;;;;;32.10;20.93;;;8.50;99.90;;;;;;5109651;28;20105;-58
2021/05/19 05:08:42;;;;;;;30.80;20.00;;;8.60;99.90;;;;;;5109412;28;20122;-57
2021/05/19 05:11:08;;;;;;;30.93;20.40;;;8.60;99.90;;;;;;5109245;28;20043;-55
2021/05/19 05:13:34;;;;;;;28.47;20.17;;;8.70;99.90;;;;;;5109633;28;20202;-56
2021/05/19 05:16:00;;;;;;;34.00;21.37;;;8.70;99.90;;;;;;5109978;28;20344;-57
2021/05/19 05:18:26;;;;;;;31.30;21.27;;;8.70;99.90;;;;;;5110878;28;20635;-62
2021/05/19 05:20:51;;;;;;;29.50;20.57;;;8.70;99.90;;;;;;5114904;28;20051;-62
2021/05/19 05:23:17;;;;;;;30.23;20.07;;;8.90;99.90;;;;;;5109936;28;20490;-58
2021/05/19 05:25:43;;;;;;;32.20;20.23;;;8.80;99.90;;;;;;5110006;28;20058;-58
2021/05/19 05:28:09;;;;;;;31.00;18.57;;;8.70;99.90;;;;;;5109735;28;20471;-58
2021/05/19 05:30:34;;;;;;;35.20;21.00;;;8.70;99.90;;;;;;5108101;28;20048;-58
2021/05/19 05:33:00;;;;;;;30.10;19.63;;;8.80;99.90;;;;;;5109895;28;20039;-57
2021/05/19 05:35:26;;;;;;;35.53;22.63;;;8.80;99.90;;;;;;5109863;28;20055;-57
2021/05/19 05:37:51;;;;;;;32.93;22.67;;;8.90;99.90;;;;;;5109352;28;20169;-57
2021/05/19 05:40:17;;;;;;;39.27;24.10;;;9.30;99.90;;;;;;5108547;28;20445;-58
2021/05/19 05:42:43;;;;;;;32.97;21.03;;;9.70;99.90;;;;;;5111829;28;20525;-59
2021/05/19 05:45:10;;;;;;;33.90;21.57;;;9.90;99.90;;;;;;5111774;28;20376;-57
2021/05/19 05:47:36;;;;;;;30.87;20.20;;;10.00;99.90;;;;;;5109138;28;20065;-58
2021/05/19 05:50:03;;;;;;;30.27;19.03;;;10.00;99.90;;;;;;5108386;28;20932;-58
2021/05/19 05:52:30;;;;;;;30.23;19.20;;;10.10;99.90;;;;;;5107994;28;20059;-59
2021/05/19 05:54:56;;;;;;;29.40;19.43;;;10.20;99.90;;;;;;5110822;28;20306;-57
2021/05/19 05:57:22;;;;;;;31.00;19.23;;;10.20;99.90;;;;;;5112319;28;20656;-56
2021/05/19 05:59:47;;;;;;;30.37;19.47;;;10.20;99.90;;;;;;5113052;28;20046;-58
2021/05/19 06:02:13;;;;;;;33.83;20.27;;;10.20;99.90;;;;;;5112180;28;20397;-58
2021/05/19 06:04:39;;;;;;;30.80;19.47;;;10.10;99.90;;;;;;5112665;28;20235;-58
2021/05/19 06:07:05;;;;;;;34.47;20.10;;;10.10;99.90;;;;;;5112434;28;20047;-59
2021/05/19 06:09:31;;;;;;;40.27;22.07;;;10.10;99.90;;;;;;5113420;28;20309;-59
2021/05/19 06:11:57;;;;;;;36.03;19.87;;;10.10;99.90;;;;;;5111086;28;20300;-61
2021/05/19 06:14:23;;;;;;;33.00;20.77;;;10.10;99.90;;;;;;5112664;28;20413;-57
2021/05/19 06:16:48;;;;;;;31.93;21.33;;;10.00;99.90;;;;;;5111768;28;20088;-57
2021/05/19 06:19:14;;;;;;;33.70;21.73;;;10.00;99.90;;;;;;5112256;28;20048;-56
2021/05/19 06:21:40;;;;;;;34.87;22.47;;;10.00;99.90;;;;;;5112270;28;20600;-56
2021/05/19 06:24:06;;;;;;;36.40;21.37;;;10.00;99.90;;;;;;5111378;28;20137;-57
2021/05/19 06:26:32;;;;;;;38.90;22.20;;;10.00;99.90;;;;;;5110000;28;20532;-56
2021/05/19 06:28:58;;;;;;;35.00;23.03;;;10.00;99.90;;;;;;5109628;28;20297;-56
2021/05/19 06:31:24;;;;;;;37.13;23.20;;;10.10;99.90;;;;;;5110119;28;20384;-56
2021/05/19 06:33:50;;;;;;;38.93;25.27;;;10.10;99.90;;;;;;5110289;28;20040;-56
2021/05/19 06:36:15;;;;;;;40.30;22.97;;;10.10;99.90;;;;;;5110260;28;20044;-57
2021/05/19 06:38:41;;;;;;;39.13;23.13;;;10.10;99.90;;;;;;5109562;28;20058;-57
2021/05/19 06:41:07;;;;;;;41.00;24.27;;;10.20;99.90;;;;;;5109905;28;20521;-57
2021/05/19 06:43:33;;;;;;;34.87;24.17;;;10.20;99.90;;;;;;5110278;28;20039;-57
2021/05/19 06:45:58;;;;;;;38.50;23.93;;;10.30;99.90;;;;;;5111466;28;20302;-59
2021/05/19 06:48:24;;;;;;;38.33;23.53;;;10.20;99.90;;;;;;5113643;28;20043;-57
2021/05/19 06:50:50;;;;;;;39.67;25.03;;;10.30;99.90;;;;;;5112348;28;20054;-57
2021/05/19 06:53:16;;;;;;;42.00;25.93;;;10.40;99.90;;;;;;5112211;28;20412;-57
2021/05/19 06:55:47;;;;;;;41.17;25.57;;;10.50;99.90;;;;;;5112113;28;20122;-58
2021/05/19 06:58:13;;;;;;;38.47;23.83;;;10.60;99.90;;;;;;5111828;28;20506;-58
2021/05/19 07:00:39;;;;;;;41.40;25.23;;;10.70;99.90;;;;;;5112186;28;20305;-58
2021/05/19 07:03:05;;;;;;;44.80;25.87;;;10.80;99.90;;;;;;5112075;28;20051;-57
2021/05/19 07:05:30;;;;;;;43.73;25.50;;;10.90;99.90;;;;;;5111539;28;20042;-57
2021/05/19 07:07:56;;;;;;;42.20;25.07;;;11.00;99.90;;;;;;5112351;28;20050;-57
2021/05/19 07:10:23;;;;;;;39.07;24.20;;;11.20;99.90;;;;;;5092817;28;20172;-57
2021/05/19 07:12:50;;;;;;;38.57;22.83;;;11.20;99.90;;;;;;5110832;28;20658;-58
2021/05/19 07:15:17;;;;;;;39.43;24.73;;;11.30;99.90;;;;;;5111723;28;20293;-57
2021/05/19 07:17:43;;;;;;;42.33;25.53;;;11.40;99.90;;;;;;5111312;28;20301;-57
2021/05/19 07:20:10;;;;;;;44.83;25.63;;;11.40;99.90;;;;;;5110645;28;20297;-57
2021/05/19 07:22:37;;;;;;;38.93;24.70;;;11.50;99.90;;;;;;5110614;28;20047;-56
2021/05/19 07:25:04;;;;;;;45.67;25.83;;;11.50;99.90;;;;;;5110582;28;20358;-57
2021/05/19 07:27:30;;;;;;;39.03;24.07;;;11.60;99.90;;;;;;5110707;28;20304;-57
2021/05/19 07:29:56;;;;;;;35.30;22.70;;;11.60;99.90;;;;;;5110246;28;20293;-57
2021/05/19 07:32:22;;;;;;;39.73;24.23;;;11.50;99.90;;;;;;5110533;28;20040;-56
2021/05/19 07:34:47;;;;;;;38.67;23.63;;;11.50;99.90;;;;;;5110282;28;20055;-57
2021/05/19 07:37:13;;;;;;;36.03;23.70;;;11.60;99.90;;;;;;5110359;28;20297;-60
2021/05/19 07:39:39;;;;;;;33.87;22.37;;;11.70;99.90;;;;;;5110318;28;20051;-57
2021/05/19 07:42:05;;;;;;;38.07;23.53;;;11.80;99.90;;;;;;5110061;28;20049;-57
2021/05/19 07:44:32;;;;;;;35.30;21.73;;;11.80;99.90;;;;;;5110197;28;20040;-57
2021/05/19 07:46:58;;;;;;;38.03;22.43;;;11.90;99.90;;;;;;5109647;28;20330;-58
2021/05/19 07:49:24;;;;;;;36.70;23.90;;;12.00;99.90;;;;;;5109950;28;20354;-58
2021/05/19 07:51:50;;;;;;;35.37;21.80;;;12.20;99.90;;;;;;5108434;28;20403;-58
2021/05/19 07:54:24;;;;;;;30.23;20.87;;;12.30;99.90;;;;;;5109518;28;20419;-58
2021/05/19 07:56:55;;;;;;;34.63;19.87;;;12.30;99.90;;;;;;5109378;28;20089;-58
2021/05/19 07:59:24;;;;;;;31.87;20.67;;;12.40;99.90;;;;;;5108678;28;20300;-59
2021/05/19 08:02:04;;;;;;;31.27;20.67;;;12.40;99.90;;;;;;5109061;28;20384;-59
2021/05/19 08:04:32;;;;;;;32.83;21.17;;;12.50;99.90;;;;;;5109305;28;20331;-58
2021/05/19 08:06:58;;;;;;;34.37;20.83;;;12.40;99.90;;;;;;5108389;28;20318;-59
2021/05/19 08:09:24;;;;;;;32.83;19.03;;;12.40;99.90;;;;;;5108615;28;20302;-58
2021/05/19 08:11:50;;;;;;;30.37;19.13;;;12.40;99.90;;;;;;5108396;28;20362;-57
2021/05/19 08:14:16;;;;;;;32.60;20.87;;;12.30;99.90;;;;;;5108482;28;20050;-58
2021/05/19 08:16:42;;;;;;;33.50;20.67;;;12.30;99.90;;;;;;5108056;28;20146;-58
2021/05/19 08:19:08;;;;;;;29.97;19.40;;;12.40;99.90;;;;;;5108389;28;20860;-58
2021/05/19 08:21:35;;;;;;;25.47;18.27;;;12.30;99.90;;;;;;5108629;28;20297;-57
2021/05/19 08:24:01;;;;;;;28.10;17.80;;;12.20;99.90;;;;;;5108650;28;20047;-58
2021/05/19 08:26:27;;;;;;;29.90;19.77;;;12.10;99.90;;;;;;5108395;28;20289;-58
2021/05/19 08:28:52;;;;;;;34.53;19.90;;;12.10;99.90;;;;;;5108511;28;20126;-58
2021/05/19 08:31:19;;;;;;;30.97;18.93;;;12.10;99.90;;;;;;5108520;28;21077;-59
2021/05/19 08:33:49;;;;;;;29.57;19.00;;;12.10;99.90;;;;;;5109782;28;20051;-58
2021/05/19 08:36:16;;;;;;;30.27;18.03;;;12.10;99.90;;;;;;5110194;28;20301;-58
2021/05/19 08:38:45;;;;;;;30.43;17.90;;;12.10;99.90;;;;;;5088337;28;20358;-59
2021/05/19 08:41:11;;;;;;;28.03;18.00;;;12.30;99.90;;;;;;5105483;28;20296;-58
2021/05/19 08:43:37;;;;;;;28.97;18.30;;;12.40;99.90;;;;;;5106525;28;20307;-57
2021/05/19 08:46:06;;;;;;;24.40;15.27;;;12.50;99.90;;;;;;5106526;28;20293;-58
2021/05/19 08:48:32;;;;;;;21.90;11.87;;;12.50;99.90;;;;;;5106544;28;20308;-57
2021/05/19 08:50:58;;;;;;;21.53;14.17;;;12.50;99.90;;;;;;5106589;28;20304;-57
2021/05/19 08:53:27;;;;;;;25.07;15.20;;;12.60;99.90;;;;;;5106628;28;20294;-58
2021/05/19 08:55:54;;;;;;;21.73;14.80;;;12.70;99.90;;;;;;5106478;28;20299;-59
2021/05/19 08:58:20;;;;;;;21.03;13.30;;;12.80;99.90;;;;;;5106106;28;20300;-58
2021/05/19 09:00:46;;;;;;;22.50;14.10;;;13.10;99.90;;;;;;5107108;28;20305;-58
2021/05/19 09:03:13;;;;;;;16.67;11.37;;;13.30;99.90;;;;;;5107379;28;20309;-59
2021/05/19 09:05:41;;;;;;;16.07;10.77;;;13.40;99.90;;;;;;5107370;28;20095;-58
2021/05/19 09:08:09;;;;;;;14.13;10.40;;;13.60;99.90;;;;;;5107970;28;20285;-58
2021/05/19 09:10:37;;;;;;;14.47;9.13;;;13.60;99.90;;;;;;5109358;28;20391;-59
2021/05/19 09:13:04;;;;;;;18.63;9.97;;;13.80;99.90;;;;;;5109302;28;20321;-59
2021/05/19 09:15:49;;;;;;;12.80;9.20;;;14.00;99.90;;;;;;5109031;28;20380;-60
2021/05/19 09:18:15;;;;;;;16.57;9.80;;;13.90;99.90;;;;;;5109121;28;20285;-58
2021/05/19 09:20:45;;;;;;;13.17;9.20;;;13.90;99.90;;;;;;5109266;28;20297;-58
2021/05/19 09:23:17;;;;;;;16.20;10.40;;;14.00;99.90;;;;;;5108660;28;20320;-59
2021/05/19 09:25:43;;;;;;;12.53;9.77;;;13.90;99.90;;;;;;5108854;28;20795;-59
2021/05/19 09:28:09;;;;;;;16.27;9.83;;;13.80;99.90;;;;;;5109890;28;20391;-59
2021/05/19 09:30:41;;;;;;;14.67;9.87;;;13.90;99.90;;;;;;5112875;28;20048;-59
2021/05/19 09:33:28;;;;;;;14.60;9.80;;;14.00;99.90;;;;;;5112981;28;20299;-59
2021/05/19 09:36:10;;;;;;;16.87;10.20;;;14.20;99.90;;;;;;5112508;28;20320;-59
2021/05/19 09:38:36;;;;;;;16.77;10.37;;;14.30;99.90;;;;;;5112969;28;20392;-59
2021/05/19 09:41:19;;;;;;;15.03;10.30;;;14.20;99.90;;;;;;5094643;28;20414;-60
2021/05/19 09:43:45;;;;;;;14.40;10.30;;;14.20;99.90;;;;;;5111952;28;20114;-59
2021/05/19 09:46:34;;;;;;;16.67;9.53;;;14.40;99.90;;;;;;5112356;28;20297;-59
2021/05/19 09:49:21;;;;;;;13.37;9.10;;;14.50;94.30;;;;;;5112487;28;20328;-59
2021/05/19 09:51:59;;;;;;;17.03;9.57;;;14.70;95.80;;;;;;5112661;28;20420;-63
2021/05/19 09:54:34;;;;;;;16.40;10.23;;;15.10;99.90;;;;;;5121784;28;21040;-62
2021/05/19 09:57:09;;;;;;;14.33;9.23;;;15.40;99.90;;;;;;5114182;28;20043;-58
2021/05/19 09:59:35;;;;;;;12.97;9.00;;;15.70;99.70;;;;;;5109941;28;20395;-60
2021/05/19 10:02:03;;;;;;;11.90;8.00;;;15.80;93.50;;;;;;5110511;28;20043;-59
2021/05/19 10:04:33;;;;;;;15.00;8.87;;;15.90;98.10;;;;;;5110966;28;20039;-59
2021/05/19 10:06:59;;;;;;;12.70;8.90;;;15.70;94.70;;;;;;5110736;28;20040;-59
2021/05/19 10:09:28;;;;;;;13.87;9.50;;;15.70;94.40;;;;;;5111099;28;20508;-58
2021/05/19 10:11:55;;;;;;;12.70;8.50;;;15.40;93.00;;;;;;5110478;28;20207;-58
2021/05/19 10:14:24;;;;;;;13.13;8.77;;;15.20;93.70;;;;;;5110244;28;20145;-59
2021/05/19 10:17:00;;;;;;;14.97;9.00;;;15.00;95.00;;;;;;5110393;28;20059;-60
2021/05/19 10:19:34;;;;;;;13.63;9.80;;;14.90;90.70;;;;;;5110721;28;20050;-59
2021/05/19 10:22:05;;;;;;;15.13;9.77;;;14.70;96.50;;;;;;5110091;28;20046;-58
2021/05/19 10:25:03;;;;;;;13.83;9.87;;;14.50;96.10;;;;;;5110987;28;20352;-60
2021/05/19 10:27:54;;;;;;;16.43;11.13;;;14.30;95.70;;;;;;5109449;28;20472;-60
2021/05/19 10:30:46;;;;;;;6.77;4.10;;;14.20;99.40;;;;;;5109554;28;20498;-60
2021/05/19 10:33:30;;;;;;;9.53;3.93;;;13.70;92.00;;;;;;5113435;28;20296;-59
2021/05/19 10:36:38;;;;;;;12.52;3.42;;;13.20;96.60;;;;;;5113132;28;20784;-59
2021/05/19 10:39:09;;;;;;;10.27;3.30;;;12.00;99.90;;;;;;5112942;28;20444;-58
2021/05/19 10:41:47;;;;;;;25.23;4.03;;;11.20;99.90;;;;;;5110758;28;20357;-57
2021/05/19 10:44:14;;;;;;;8.80;4.13;;;10.80;99.90;;;;;;5112178;28;20372;-58
2021/05/19 10:47:05;;;;;;;8.63;3.67;;;10.50;99.90;;;;;;5112643;28;20816;-58
2021/05/19 10:49:44;;;;;;;4.77;2.80;;;10.60;99.90;;;;;;5112654;28;20297;-58
2021/05/19 10:52:20;;;;;;;6.43;2.47;;;10.40;99.90;;;;;;5112066;28;20301;-58
2021/05/19 10:57:55;;;;;;;3.67;2.40;;;10.40;99.90;;;;;;5111667;28;20305;-58
2021/05/19 11:00:23;;;;;;;3.97;2.50;;;10.30;99.90;;;;;;5111476;28;20396;-58
2021/05/19 11:02:59;;;;;;;6.60;3.10;;;10.40;99.90;;;;;;5111442;28;20319;-58
2021/05/19 11:05:35;;;;;;;7.50;3.47;;;10.50;99.90;;;;;;5111336;28;20308;-59
2021/05/19 11:08:07;;;;;;;5.27;2.70;;;10.70;99.90;;;;;;5111550;28;20374;-58
2021/05/19 11:10:34;;;;;;;5.60;3.00;;;10.70;99.90;;;;;;5111160;28;20305;-58
2021/05/19 11:13:00;;;;;;;4.03;3.00;;;10.70;99.90;;;;;;5111430;28;20691;-58
2021/05/19 11:21:19;;;;;;;4.17;2.80;;;10.90;99.90;;;;;;5110350;28;20293;-57
2021/05/19 11:24:00;;;;;;;4.50;2.30;;;10.90;99.90;;;;;;5111426;28;20367;-58
2021/05/19 11:26:26;;;;;;;3.20;2.00;;;10.80;99.90;;;;;;5111432;28;20796;-58
2021/05/19 11:28:56;;;;;;;3.70;2.30;;;10.80;99.90;;;;;;5111609;28;20381;-59
2021/05/19 11:31:25;;;;;;;4.00;2.80;;;10.90;99.90;;;;;;5111235;28;20138;-58
2021/05/19 11:33:59;;;;;;;3.23;2.93;;;10.90;99.90;;;;;;5093333;28;20293;-58
2021/05/19 11:36:41;;;;;;;3.73;2.90;;;11.00;99.90;;;;;;5110480;28;20312;-59
2021/05/19 11:39:22;;;;;;;4.97;2.90;;;11.00;99.90;;;;;;5109295;28;20368;-58
2021/05/19 11:41:50;;;;;;;3.77;2.70;;;11.30;99.90;;;;;;5109818;28;20884;-60
2021/05/19 11:44:33;;;;;;;7.03;2.93;;;11.10;99.90;;;;;;5110189;28;20804;-60
2021/05/19 11:47:00;;;;;;;6.72;2.50;;;11.00;99.90;;;;;;5091047;28;20894;-58
2021/05/19 11:49:26;;;;;;;2.83;2.50;;;11.00;99.90;;;;;;5110282;28;20036;-59
2021/05/19 11:51:53;;;;;;;3.97;2.70;;;10.90;99.90;;;;;;5109791;28;20301;-60
2021/05/19 11:54:21;;;;;;;5.13;2.70;;;11.00;99.90;;;;;;5110212;28;20778;-58
2021/05/19 11:56:50;;;;;;;4.43;2.77;;;11.00;99.90;;;;;;5091432;28;20300;-58
2021/05/19 11:59:21;;;;;;;2.73;2.53;;;11.00;99.90;;;;;;5108154;28;20297;-58
2021/05/19 12:01:58;;;;;;;3.27;2.40;;;11.00;99.90;;;;;;5109776;28;20289;-60
2021/05/19 12:04:25;;;;;;;5.33;2.50;;;11.00;99.90;;;;;;5107765;28;20313;-58
2021/05/19 12:06:51;;;;;;;3.07;2.43;;;11.00;99.90;;;;;;5110182;28;20300;-59
2021/05/19 12:09:18;;;;;;;3.37;2.33;;;11.10;99.90;;;;;;5109488;27;20605;-58
2021/05/19 12:11:45;;;;;;;4.90;2.57;;;11.10;99.90;;;;;;5109223;28;20210;-59
2021/05/19 12:14:12;;;;;;;3.97;2.43;;;11.10;99.90;;;;;;5091321;28;20772;-60
2021/05/19 12:16:41;;;;;;;4.83;2.83;;;11.10;99.90;;;;;;5109564;28;20814;-58
2021/05/19 12:19:13;;;;;;;3.87;2.73;;;11.10;99.90;;;;;;5109594;28;20300;-57
2021/05/19 12:21:48;;;;;;;4.30;2.87;;;11.20;99.90;;;;;;5107124;28;20300;-58
2021/05/19 12:24:17;;;;;;;4.00;2.60;;;11.20;99.90;;;;;;5109452;28;20350;-60
2021/05/19 12:26:44;;;;;;;5.13;2.33;;;11.30;99.90;;;;;;5108655;28;20686;-58
2021/05/19 12:29:32;;;;;;;3.67;2.27;;;11.40;99.90;;;;;;5108704;28;20285;-58
2021/05/19 12:32:24;;;;;;;2.50;2.30;;;11.40;99.90;;;;;;5104872;28;20336;-58
2021/05/19 12:35:00;;;;;;;2.90;2.20;;;11.60;99.90;;;;;;5108318;28;20350;-57
2021/05/19 12:37:51;;;;;;;2.47;2.27;;;11.70;99.90;;;;;;5107997;28;20442;-57
2021/05/19 12:40:20;;;;;;;3.53;2.00;;;11.80;99.90;;;;;;5105666;28;20297;-58
2021/05/19 12:42:51;;;;;;;3.77;2.40;;;11.90;99.90;;;;;;5108952;28;20785;-58
2021/05/19 12:45:42;;;;;;;3.47;2.30;;;12.10;99.90;;;;;;5106853;28;20669;-58
2021/05/19 12:48:10;;;;;;;4.13;2.60;;;12.30;99.90;;;;;;5107655;28;20594;-60
2021/05/19 12:50:45;;;;;;;3.07;2.40;;;12.50;99.90;;;;;;5106248;28;20695;-58
2021/05/19 12:53:29;;;;;;;;;;;12.60;99.90;;;;;;5109278;28;20301;-59
2021/05/19 12:56:04;;;;;;;3.27;2.90;;;12.70;99.90;;;;;;5105086;28;19920;-59